createdAt,value
2023-03-01T00:01:36.549Z,102416.52
2023-03-01T00:04:04.640Z,102418.82
2023-03-01T00:06:32.974Z,102418.78
2023-03-01T00:09:01.189Z,102413.15
2023-03-01T00:11:31.743Z,102414.70
2023-03-01T00:14:06.147Z,102414.33
2023-03-01T00:16:46.736Z,102408.11
2023-03-01T00:19:17.954Z,102407.92
2023-03-01T00:21:46.474Z,102409.20
2023-03-01T00:24:14.738Z,102409.92
2023-03-01T00:26:42.604Z,102405.39
2023-03-01T00:29:10.763Z,102406.85
2023-03-01T00:31:38.687Z,102407.30
2023-03-01T00:34:07.409Z,102402.30
2023-03-01T00:36:37.593Z,102394.10
2023-03-01T00:39:10.934Z,102389.41
2023-03-01T00:41:39.045Z,102385.98
2023-03-01T00:44:06.990Z,102385.33
2023-03-01T00:46:37.649Z,102382.89
2023-03-01T00:49:06.224Z,102375.31
2023-03-01T00:51:34.604Z,102374.27
2023-03-01T00:54:03.663Z,102368.02
2023-03-01T00:56:32.443Z,102369.58
2023-03-01T00:59:01.664Z,102371.91
2023-03-01T01:01:31.909Z,102376.88
2023-03-01T01:04:04.881Z,102373.05
2023-03-01T01:06:36.523Z,102370.15
2023-03-01T01:09:06.759Z,102369.16
2023-03-01T01:11:36.492Z,102365.86
2023-03-01T01:14:05.742Z,102367.41
2023-03-01T01:16:34.415Z,102369.64
2023-03-01T01:19:03.804Z,102368.23
2023-03-01T01:21:32.177Z,102368.39
2023-03-01T01:24:00.276Z,102363.09
2023-03-01T01:26:31.618Z,102362.77
2023-03-01T01:29:00.924Z,102364.94
2023-03-01T01:31:29.852Z,102369.70
2023-03-01T01:34:01.445Z,102368.23
2023-03-01T01:36:29.927Z,102363.57
2023-03-01T01:38:58.952Z,102366.74
2023-03-01T01:41:29.290Z,102365.88
2023-03-01T01:44:22.040Z,102365.52
2023-03-01T01:46:51.851Z,102370.45
2023-03-01T01:49:38.623Z,102366.46
2023-03-01T01:52:21.726Z,102361.11
2023-03-01T01:54:56.126Z,102363.04
2023-03-01T01:57:33.907Z,102359.69
2023-03-01T02:00:07.986Z,102355.46
2023-03-01T02:02:44.388Z,102344.61
2023-03-01T02:05:23.562Z,102339.58
2023-03-01T02:07:52.095Z,102328.79
2023-03-01T02:10:23.957Z,102327.48
2023-03-01T02:12:53.596Z,102324.74
2023-03-01T02:15:21.447Z,102322.48
2023-03-01T02:17:49.885Z,102322.65
2023-03-01T02:20:20.514Z,102324.39
2023-03-01T02:22:49.831Z,102327.65
2023-03-01T02:25:20.793Z,102324.31
2023-03-01T02:28:17.001Z,102317.13
2023-03-01T02:31:08.258Z,102312.23
2023-03-01T02:33:38.826Z,102304.98
2023-03-01T02:36:12.655Z,102304.08
2023-03-01T02:38:42.246Z,102300.30
2023-03-01T02:41:14.423Z,102295.06
2023-03-01T02:43:43.077Z,102303.26
2023-03-01T02:46:21.206Z,102298.73
2023-03-01T02:48:52.009Z,102298.70
2023-03-01T02:51:23.055Z,102301.09
2023-03-01T02:54:06.300Z,102300.20
2023-03-01T02:56:34.991Z,102297.55
2023-03-01T02:59:04.865Z,102291.64
2023-03-01T03:01:39.356Z,102286.91
2023-03-01T03:04:12.987Z,102286.91
2023-03-01T03:06:40.949Z,102283.21
2023-03-01T03:09:09.165Z,102291.23
2023-03-01T03:11:38.009Z,102291.98
2023-03-01T03:14:06.869Z,102291.30
2023-03-01T03:16:34.774Z,102288.84
2023-03-01T03:19:06.162Z,102286.59
2023-03-01T03:21:34.861Z,102284.83
2023-03-01T03:24:02.985Z,102281.99
2023-03-01T03:26:31.830Z,102282.88
2023-03-01T03:28:59.949Z,102278.08
2023-03-01T03:31:28.086Z,102281.55
2023-03-01T03:33:56.949Z,102275.78
2023-03-01T03:36:25.469Z,102278.23
2023-03-01T03:38:53.733Z,102275.00
2023-03-01T03:41:21.798Z,102275.11
2023-03-01T03:43:50.130Z,102275.68
2023-03-01T03:46:18.179Z,102271.88
2023-03-01T03:48:46.893Z,102271.39
2023-03-01T03:51:17.600Z,102268.23
2023-03-01T03:53:46.671Z,102271.45
2023-03-01T03:56:15.101Z,102272.86
2023-03-01T03:58:43.048Z,102279.63
2023-03-01T04:01:10.938Z,102281.65
2023-03-01T04:03:38.903Z,102282.40
2023-03-01T04:06:07.118Z,102280.52
2023-03-01T04:08:35.151Z,102278.10
2023-03-01T04:11:25.165Z,102273.56
2023-03-01T04:13:56.137Z,102275.40
2023-03-01T04:16:24.572Z,102273.69
2023-03-01T04:18:54.653Z,102275.56
2023-03-01T04:21:22.996Z,102269.11
2023-03-01T04:23:53.666Z,102262.30
2023-03-01T04:26:21.980Z,102260.77
2023-03-01T04:28:51.473Z,102260.44
2023-03-01T04:31:22.640Z,102266.16
2023-03-01T04:33:56.397Z,102269.45
2023-03-01T04:36:29.568Z,102273.48
2023-03-01T04:38:58.593Z,102275.52
2023-03-01T04:41:27.044Z,102281.10
2023-03-01T04:43:55.159Z,102280.09
2023-03-01T04:46:23.454Z,102279.02
2023-03-01T04:48:51.435Z,102277.44
2023-03-01T04:51:19.613Z,102271.33
2023-03-01T04:53:48.524Z,102276.02
2023-03-01T04:56:18.845Z,102277.73
2023-03-01T04:58:47.669Z,102271.23
2023-03-01T05:01:18.404Z,102271.00
2023-03-01T05:03:51.635Z,102268.71
2023-03-01T05:06:21.431Z,102264.38
2023-03-01T05:08:50.414Z,102259.40
2023-03-01T05:11:18.309Z,102259.63
2023-03-01T05:13:46.367Z,102258.40
2023-03-01T05:16:14.345Z,102259.13
2023-03-01T05:18:42.641Z,102256.73
2023-03-01T05:21:18.279Z,102256.20
2023-03-01T05:23:46.322Z,102254.23
2023-03-01T05:26:28.221Z,102251.41
2023-03-01T05:28:57.942Z,102253.77
2023-03-01T05:31:26.005Z,102255.05
2023-03-01T05:33:54.094Z,102258.58
2023-03-01T05:36:22.073Z,102258.96
2023-03-01T05:38:49.919Z,102256.88
2023-03-01T05:41:20.506Z,102258.02
2023-03-01T05:43:48.426Z,102262.42
2023-03-01T05:46:16.619Z,102270.34
2023-03-01T05:48:44.878Z,102270.20
2023-03-01T05:51:13.234Z,102275.48
2023-03-01T05:53:41.203Z,102275.67
2023-03-01T05:56:09.262Z,102272.36
2023-03-01T05:58:39.719Z,102273.02
2023-03-01T06:01:13.331Z,102274.17
2023-03-01T06:03:41.345Z,102277.56
2023-03-01T06:06:09.182Z,102277.13
2023-03-01T06:08:37.005Z,102273.81
2023-03-01T06:11:06.323Z,102280.07
2023-03-01T06:13:34.250Z,102283.48
2023-03-01T06:16:05.074Z,102281.90
2023-03-01T06:18:33.334Z,102277.69
2023-03-01T06:21:01.340Z,102270.32
2023-03-01T06:23:29.438Z,102268.16
2023-03-01T06:25:57.481Z,102264.27
2023-03-01T06:28:25.454Z,102259.45
2023-03-01T06:30:53.756Z,102255.26
2023-03-01T06:33:23.068Z,102254.91
2023-03-01T06:35:51.677Z,102262.67
2023-03-01T06:38:20.112Z,102257.76
2023-03-01T06:40:55.042Z,102252.09
2023-03-01T06:43:24.566Z,102249.48
2023-03-01T06:45:52.451Z,102244.27
2023-03-01T06:48:20.414Z,102245.59
2023-03-01T06:50:48.460Z,102245.73
2023-03-01T06:53:16.421Z,102245.61
2023-03-01T06:55:44.744Z,102240.84
2023-03-01T06:58:12.898Z,102244.52
2023-03-01T07:00:42.011Z,102243.44
2023-03-01T07:03:10.105Z,102239.90
2023-03-01T07:05:39.168Z,102237.14
2023-03-01T07:08:07.431Z,102235.44
2023-03-01T07:10:35.463Z,102239.83
2023-03-01T07:13:03.451Z,102236.70
2023-03-01T07:15:31.246Z,102239.80
2023-03-01T07:17:59.443Z,102238.89
2023-03-01T07:20:27.453Z,102241.76
2023-03-01T07:22:57.498Z,102235.94
2023-03-01T07:25:26.014Z,102231.85
2023-03-01T07:27:55.022Z,102232.58
2023-03-01T07:30:23.628Z,102238.59
2023-03-01T07:32:53.547Z,102241.13
2023-03-01T07:35:24.388Z,102243.22
2023-03-01T07:37:52.729Z,102245.14
2023-03-01T07:40:20.978Z,102244.04
2023-03-01T07:42:48.935Z,102247.17
2023-03-01T07:45:16.915Z,102245.77
2023-03-01T07:47:44.855Z,102245.81
2023-03-01T07:50:14.485Z,102245.01
2023-03-01T07:52:42.381Z,102248.01
2023-03-01T07:55:10.543Z,102253.41
2023-03-01T07:57:39.460Z,102255.41
2023-03-01T08:00:08.931Z,102251.35
2023-03-01T08:02:43.113Z,102248.46
2023-03-01T08:05:11.670Z,102247.50
2023-03-01T08:07:39.547Z,102253.48
2023-03-01T08:10:08.057Z,102249.13
2023-03-01T08:12:36.188Z,102243.85
2023-03-01T08:15:04.699Z,102247.48
2023-03-01T08:17:32.660Z,102244.91
2023-03-01T08:20:00.501Z,102244.21
2023-03-01T08:22:28.335Z,102242.66
2023-03-01T08:24:56.904Z,102238.40
2023-03-01T08:27:25.631Z,102242.87
2023-03-01T08:29:53.691Z,102241.86
2023-03-01T08:32:21.988Z,102239.99
2023-03-01T08:34:50.026Z,102241.88
2023-03-01T08:37:18.099Z,102241.23
2023-03-01T08:39:53.518Z,102238.52
2023-03-01T08:42:21.401Z,102232.47
2023-03-01T08:44:49.475Z,102237.14
2023-03-01T08:47:18.584Z,102234.77
2023-03-01T08:49:46.393Z,102231.03
2023-03-01T08:52:14.445Z,102229.88
2023-03-01T08:54:42.288Z,102230.48
2023-03-01T08:57:10.789Z,102231.37
2023-03-01T08:59:38.739Z,102224.64
2023-03-01T09:02:13.506Z,102226.10
2023-03-01T09:04:41.758Z,102221.70
2023-03-01T09:07:11.094Z,102225.56
2023-03-01T09:09:38.981Z,102227.05
2023-03-01T09:12:07.223Z,102228.52
2023-03-01T09:14:35.298Z,102226.20
2023-03-01T09:17:04.201Z,102220.67
2023-03-01T09:19:32.529Z,102220.62
2023-03-01T09:22:00.544Z,102218.80
2023-03-01T09:24:28.576Z,102217.11
2023-03-01T09:26:58.052Z,102210.88
2023-03-01T09:29:26.983Z,102202.86
2023-03-01T09:31:56.501Z,102205.58
2023-03-01T09:34:24.902Z,102203.02
2023-03-01T09:36:53.099Z,102188.08
2023-03-01T09:39:21.818Z,102192.29
2023-03-01T09:42:05.669Z,102192.29
2023-03-01T09:44:34.393Z,102192.69
2023-03-01T09:47:03.689Z,102196.81
2023-03-01T09:49:35.040Z,102203.19
2023-03-01T09:52:20.313Z,102206.44
2023-03-01T09:54:54.090Z,102205.15
2023-03-01T09:57:42.523Z,102202.95
2023-03-01T10:00:17.714Z,102202.10
2023-03-01T10:03:29.957Z,102197.45
2023-03-01T10:06:02.157Z,102199.30
2023-03-01T10:08:48.863Z,102197.89
2023-03-01T10:11:35.433Z,102199.86
2023-03-01T10:14:20.749Z,102200.28
2023-03-01T10:16:59.928Z,102194.19
2023-03-01T10:19:33.563Z,102202.02
2023-03-01T10:22:12.382Z,102204.46
2023-03-01T10:24:40.398Z,102198.71
2023-03-01T10:27:21.062Z,102193.90
2023-03-01T10:30:22.127Z,102196.27
2023-03-01T10:32:54.203Z,102191.60
2023-03-01T10:35:26.093Z,102194.38
2023-03-01T10:38:05.855Z,102195.77
2023-03-01T10:40:35.685Z,102190.81
2023-03-01T10:43:07.459Z,102190.87
2023-03-01T10:45:40.642Z,102186.23
2023-03-01T10:48:27.100Z,102178.19
2023-03-01T10:51:01.181Z,102180.87
2023-03-01T10:53:37.637Z,102176.54
2023-03-01T10:56:07.405Z,102170.27
2023-03-01T10:58:37.859Z,102170.77
2023-03-01T11:01:16.541Z,102163.80
2023-03-01T11:03:44.610Z,102161.54
2023-03-01T11:06:12.436Z,102164.14
2023-03-01T11:08:49.126Z,102161.30
2023-03-01T11:11:36.098Z,102157.52
2023-03-01T11:14:27.280Z,102156.56
2023-03-01T11:17:12.966Z,102151.82
2023-03-01T11:19:41.147Z,102152.14
2023-03-01T11:22:22.281Z,102149.52
2023-03-01T11:25:08.811Z,102148.31
2023-03-01T11:27:43.049Z,102146.05
2023-03-01T11:30:46.554Z,102141.38
2023-03-01T11:33:38.279Z,102137.10
2023-03-01T11:36:12.415Z,102130.93
2023-03-01T11:38:40.804Z,102127.24
2023-03-01T11:41:19.513Z,102122.17
2023-03-01T11:43:50.688Z,102118.71
2023-03-01T11:46:41.841Z,102122.07
2023-03-01T11:49:31.626Z,102122.21
2023-03-01T11:52:18.075Z,102121.15
2023-03-01T11:54:54.996Z,102117.22
2023-03-01T11:57:37.759Z,102112.60
2023-03-01T12:00:32.456Z,102112.90
2023-03-01T12:03:03.387Z,102108.05
2023-03-01T12:05:40.219Z,102105.92
2023-03-01T12:08:26.646Z,102106.27
2023-03-01T12:11:27.884Z,102097.80
2023-03-01T12:14:09.248Z,102098.21
2023-03-01T12:16:40.560Z,102093.50
2023-03-01T12:19:31.960Z,102087.36
2023-03-01T12:22:10.278Z,102080.92
2023-03-01T12:24:47.388Z,102076.55
2023-03-01T12:27:41.482Z,102072.61
2023-03-01T12:30:27.540Z,102064.80
2023-03-01T12:33:20.193Z,102068.44
2023-03-01T12:36:22.511Z,102062.14
2023-03-01T12:39:00.434Z,102061.02
2023-03-01T12:41:34.285Z,102060.04
2023-03-01T12:44:05.086Z,102056.41
2023-03-01T12:46:48.624Z,102057.16
2023-03-01T12:49:22.364Z,102054.67
2023-03-01T12:52:35.335Z,102053.58
2023-03-01T12:55:09.824Z,102047.49
2023-03-01T12:57:48.370Z,102044.23
2023-03-01T13:00:31.884Z,102040.02
2023-03-01T13:03:22.001Z,102036.50
2023-03-01T13:06:18.063Z,102041.35
2023-03-01T13:08:56.224Z,102040.14
2023-03-01T13:11:25.113Z,102035.65
2023-03-01T13:13:55.554Z,102040.09
2023-03-01T13:16:44.088Z,102039.02
2023-03-01T13:19:18.165Z,102035.79
2023-03-01T13:21:47.966Z,102038.54
2023-03-01T13:24:28.044Z,102032.54
2023-03-01T13:27:08.162Z,102027.30
2023-03-01T13:29:45.143Z,102024.44
2023-03-01T13:32:37.888Z,102020.41
2023-03-01T13:35:17.971Z,102011.48
2023-03-01T13:37:46.828Z,102009.36
2023-03-01T13:40:19.562Z,102010.03
2023-03-01T13:43:05.594Z,102009.16
2023-03-01T13:45:41.241Z,102004.27
2023-03-01T13:48:15.965Z,101999.91
2023-03-01T13:50:52.561Z,102000.67
2023-03-01T13:53:24.223Z,101999.10
2023-03-01T13:55:58.740Z,101995.80
2023-03-01T13:58:34.092Z,101989.18
2023-03-01T14:01:03.504Z,101985.36
2023-03-01T14:03:34.029Z,101981.77
2023-03-01T14:06:14.964Z,101979.45
2023-03-01T14:08:46.259Z,101981.40
2023-03-01T14:11:14.301Z,101981.50
2023-03-01T14:14:03.908Z,101985.86
2023-03-01T14:16:53.834Z,101990.41
2023-03-01T14:19:35.128Z,101985.77
2023-03-01T14:22:26.329Z,101986.20
2023-03-01T14:25:00.544Z,101986.05
2023-03-01T14:27:42.982Z,101985.78
2023-03-01T14:30:22.916Z,101981.95
2023-03-01T14:33:00.183Z,101982.80
2023-03-01T14:35:31.018Z,101979.85
2023-03-01T14:37:59.196Z,101981.53
2023-03-01T14:40:37.993Z,101977.11
2023-03-01T14:43:12.599Z,101974.30
2023-03-01T14:45:40.780Z,101973.02
2023-03-01T14:48:09.226Z,101974.91
2023-03-01T14:50:43.377Z,101978.61
2023-03-01T14:53:21.399Z,101970.01
2023-03-01T14:55:53.303Z,101966.27
2023-03-01T14:58:24.625Z,101966.73
2023-03-01T15:01:01.836Z,101966.96
2023-03-01T15:03:45.005Z,101964.30
2023-03-01T15:06:17.854Z,101963.11
2023-03-01T15:08:48.979Z,101963.16
2023-03-01T15:11:28.132Z,101963.73
2023-03-01T15:13:56.273Z,101962.46
2023-03-01T15:16:31.184Z,101961.03
2023-03-01T15:19:01.626Z,101963.26
2023-03-01T15:21:38.909Z,101964.81
2023-03-01T15:24:20.487Z,101966.34
2023-03-01T15:27:03.031Z,101960.48
2023-03-01T15:29:34.424Z,101960.40
2023-03-01T15:32:25.820Z,101961.94
2023-03-01T15:34:53.844Z,101958.95
2023-03-01T15:37:45.134Z,101956.23
2023-03-01T15:40:22.496Z,101959.55
2023-03-01T15:42:50.865Z,101959.60
2023-03-01T15:45:21.703Z,101959.86
2023-03-01T15:47:53.758Z,101956.17
2023-03-01T15:50:24.442Z,101956.96
2023-03-01T15:52:52.979Z,101950.27
2023-03-01T15:55:23.997Z,101951.97
2023-03-01T15:58:01.677Z,101948.41
2023-03-01T16:00:30.324Z,101950.61
2023-03-01T16:02:58.471Z,101953.20
2023-03-01T16:05:32.134Z,101951.68
2023-03-01T16:08:00.083Z,101950.81
2023-03-01T16:10:28.865Z,101951.29
2023-03-01T16:12:57.060Z,101951.55
2023-03-01T16:15:31.248Z,101953.79
2023-03-01T16:18:01.068Z,101953.45
2023-03-01T16:20:33.443Z,101953.08
2023-03-01T16:23:03.967Z,101952.05
2023-03-01T16:25:33.347Z,101953.85
2023-03-01T16:28:05.132Z,101948.20
2023-03-01T16:30:36.240Z,101950.77
2023-03-01T16:33:19.220Z,101949.30
2023-03-01T16:35:52.629Z,101945.94
2023-03-01T16:38:20.481Z,101940.17
2023-03-01T16:40:50.632Z,101938.63
2023-03-01T16:43:19.211Z,101934.42
2023-03-01T16:45:47.770Z,101934.49
2023-03-01T16:48:15.903Z,101939.33
2023-03-01T16:50:43.871Z,101941.77
2023-03-01T16:53:12.083Z,101942.70
2023-03-01T16:55:46.442Z,101947.91
2023-03-01T16:58:16.565Z,101945.53
2023-03-01T17:00:44.483Z,101945.95
2023-03-01T17:03:14.893Z,101942.96
2023-03-01T17:05:42.993Z,101940.90
2023-03-01T17:08:10.910Z,101939.04
2023-03-01T17:10:38.942Z,101940.47
2023-03-01T17:13:06.805Z,101945.76
2023-03-01T17:15:34.782Z,101943.59
2023-03-01T17:18:03.830Z,101946.76
2023-03-01T17:20:31.858Z,101947.02
2023-03-01T17:22:59.833Z,101947.20
2023-03-01T17:25:28.741Z,101944.11
2023-03-01T17:27:56.835Z,101947.11
2023-03-01T17:30:24.841Z,101950.03
2023-03-01T17:32:55.859Z,101949.20
2023-03-01T17:35:24.116Z,101947.03
2023-03-01T17:37:52.012Z,101946.38
2023-03-01T17:40:20.082Z,101947.23
2023-03-01T17:42:47.977Z,101945.95
2023-03-01T17:45:15.960Z,101951.03
2023-03-01T17:47:43.993Z,101953.75
2023-03-01T17:50:12.523Z,101953.26
2023-03-01T17:52:44.029Z,101952.24
2023-03-01T17:55:12.325Z,101948.06
2023-03-01T17:57:41.621Z,101945.05
2023-03-01T18:00:14.639Z,101938.86
2023-03-01T18:02:43.234Z,101936.65
2023-03-01T18:05:11.765Z,101938.90
2023-03-01T18:07:39.828Z,101941.23
2023-03-01T18:10:08.710Z,101937.58
2023-03-01T18:12:36.689Z,101935.86
2023-03-01T18:15:08.286Z,101933.02
2023-03-01T18:17:36.290Z,101930.02
2023-03-01T18:20:07.233Z,101932.93
2023-03-01T18:22:35.359Z,101936.34
2023-03-01T18:25:05.203Z,101942.09
2023-03-01T18:27:33.567Z,101946.90
2023-03-01T18:30:01.702Z,101941.05
2023-03-01T18:32:29.916Z,101939.05
2023-03-01T18:34:58.050Z,101940.02
2023-03-01T18:37:26.043Z,101939.92
2023-03-01T18:39:54.609Z,101936.41
2023-03-01T18:42:22.720Z,101935.54
2023-03-01T18:44:51.109Z,101928.87
2023-03-01T18:47:19.153Z,101929.11
2023-03-01T18:49:47.240Z,101928.20
2023-03-01T18:52:15.211Z,101932.46
2023-03-01T18:54:43.062Z,101935.65
2023-03-01T18:57:11.208Z,101937.48
2023-03-01T18:59:39.260Z,101937.92
2023-03-01T19:02:07.359Z,101937.52
2023-03-01T19:04:35.397Z,101939.77
2023-03-01T19:07:04.075Z,101942.41
2023-03-01T19:09:32.058Z,101942.52
2023-03-01T19:12:02.030Z,101943.97
2023-03-01T19:14:30.188Z,101945.83
2023-03-01T19:16:58.169Z,101947.40
2023-03-01T19:19:26.207Z,101953.81
2023-03-01T19:22:05.043Z,101961.75
2023-03-01T19:24:35.192Z,101961.38
2023-03-01T19:27:03.323Z,101966.04
2023-03-01T19:29:31.412Z,101966.11
2023-03-01T19:31:59.651Z,101966.08
2023-03-01T19:34:27.670Z,101965.86
2023-03-01T19:36:55.804Z,101967.20
2023-03-01T19:39:23.644Z,101968.30
2023-03-01T19:41:52.087Z,101969.27
2023-03-01T19:44:24.908Z,101971.45
2023-03-01T19:46:53.934Z,101972.42
2023-03-01T19:49:21.795Z,101976.90
2023-03-01T19:51:49.831Z,101975.48
2023-03-01T19:54:21.814Z,101978.23
2023-03-01T19:56:51.345Z,101977.66
2023-03-01T19:59:24.442Z,101977.91
2023-03-01T20:01:52.776Z,101975.36
2023-03-01T20:04:20.942Z,101974.66
2023-03-01T20:06:49.445Z,101976.83
2023-03-01T20:09:21.898Z,101974.55
2023-03-01T20:11:51.672Z,101977.72
2023-03-01T20:14:21.093Z,101973.80
2023-03-01T20:16:52.153Z,101977.40
2023-03-01T20:19:20.942Z,101979.77
2023-03-01T20:21:49.233Z,101979.58
2023-03-01T20:24:17.291Z,101977.36
2023-03-01T20:26:45.668Z,101980.47
2023-03-01T20:29:13.762Z,101980.55
2023-03-01T20:31:42.653Z,101979.85
2023-03-01T20:34:10.811Z,101978.48
2023-03-01T20:36:39.508Z,101980.32
2023-03-01T20:39:08.065Z,101987.09
2023-03-01T20:41:35.960Z,101985.56
2023-03-01T20:44:06.684Z,101989.36
2023-03-01T20:46:36.461Z,101990.16
2023-03-01T20:49:05.683Z,101991.23
2023-03-01T20:51:33.664Z,101987.23
2023-03-01T20:54:01.524Z,101987.86
2023-03-01T20:56:29.448Z,101986.62
2023-03-01T20:59:05.800Z,101985.25
2023-03-01T21:01:34.154Z,101981.72
2023-03-01T21:04:02.428Z,101980.80
2023-03-01T21:06:31.568Z,101973.71
2023-03-01T21:08:59.971Z,101968.41
2023-03-01T21:11:27.888Z,101965.09
2023-03-01T21:13:56.737Z,101962.02
2023-03-01T21:16:25.721Z,101963.42
2023-03-01T21:18:53.769Z,101961.05
2023-03-01T21:21:24.081Z,101955.23
2023-03-01T21:23:53.872Z,101956.28
2023-03-01T21:26:25.060Z,101954.93
2023-03-01T21:28:58.763Z,101957.36
2023-03-01T21:31:29.080Z,101954.55
2023-03-01T21:34:00.078Z,101949.88
2023-03-01T21:36:29.437Z,101952.57
2023-03-01T21:39:00.901Z,101952.79
2023-03-01T21:41:32.443Z,101951.40
2023-03-01T21:44:03.131Z,101949.31
2023-03-01T21:46:36.490Z,101948.65
2023-03-01T21:49:05.465Z,101948.42
2023-03-01T21:51:33.744Z,101951.00
2023-03-01T21:54:02.171Z,101950.36
2023-03-01T21:56:34.529Z,101943.32
2023-03-01T21:59:02.609Z,101949.14
2023-03-01T22:01:31.363Z,101949.77
2023-03-01T22:04:01.157Z,101950.68
2023-03-01T22:06:41.286Z,101948.34
2023-03-01T22:09:14.968Z,101944.31
2023-03-01T22:11:46.833Z,101942.92
2023-03-01T22:14:16.392Z,101942.88
2023-03-01T22:16:45.770Z,101938.84
2023-03-01T22:19:15.985Z,101935.83
2023-03-01T22:21:46.613Z,101940.05
2023-03-01T22:24:15.122Z,101945.06
2023-03-01T22:26:45.234Z,101947.30
2023-03-01T22:29:19.393Z,101942.20
2023-03-01T22:31:48.001Z,101941.33
2023-03-01T22:34:17.339Z,101942.23
2023-03-01T22:36:46.317Z,101934.59
2023-03-01T22:39:16.226Z,101936.93
2023-03-01T22:41:46.203Z,101938.50
2023-03-01T22:44:22.883Z,101937.40
2023-03-01T22:46:50.910Z,101931.02
2023-03-01T22:49:19.762Z,101932.20
2023-03-01T22:51:48.255Z,101933.88
2023-03-01T22:54:18.741Z,101929.10
2023-03-01T22:56:46.779Z,101924.40
2023-03-01T22:59:16.700Z,101923.17
2023-03-01T23:01:48.111Z,101922.91
2023-03-01T23:04:17.669Z,101921.98
2023-03-01T23:06:54.116Z,101918.69
2023-03-01T23:09:30.919Z,101919.54
2023-03-01T23:12:00.881Z,101917.81
2023-03-01T23:14:31.718Z,101915.89
2023-03-01T23:17:03.300Z,101915.85
2023-03-01T23:19:32.109Z,101915.78
2023-03-01T23:22:00.416Z,101918.41
2023-03-01T23:24:31.978Z,101921.82
2023-03-01T23:27:02.165Z,101923.02
2023-03-01T23:29:31.242Z,101928.89
2023-03-01T23:32:00.143Z,101925.84
2023-03-01T23:34:28.935Z,101932.81
2023-03-01T23:36:58.146Z,101932.37
2023-03-01T23:39:26.368Z,101932.17
2023-03-01T23:41:54.175Z,101930.70
2023-03-01T23:44:23.165Z,101934.38
2023-03-01T23:46:51.319Z,101930.37
2023-03-01T23:49:22.408Z,101930.33
2023-03-01T23:51:50.788Z,101928.36
2023-03-01T23:54:22.423Z,101924.52
2023-03-01T23:56:50.443Z,101921.55
2023-03-01T23:59:21.973Z,101917.38
